sensor_id;sensor_type;location;lat;lon;timestamp;pressure;altitude;pressure_sealevel;temperature;humidity
76586;BME280;65251;51.022;13.736;2023-07-24T00:00:14;98621.91;;;21.83;46.01
76586;BME280;65251;51.022;13.736;2023-07-24T00:00:46;98625.72;;;21.82;45.95
76586;BME280;65251;51.022;13.736;2023-07-24T00:01:17;98623.03;;;21.82;46.01
76586;BME280;65251;51.022;13.736;2023-07-24T00:01:48;98624.94;;;21.81;46.32
76586;BME280;65251;51.022;13.736;2023-07-24T00:02:19;98619.50;;;21.81;45.92
76586;BME280;65251;51.022;13.736;2023-07-24T00:02:50;98622.50;;;21.80;46.45
76586;BME280;65251;51.022;13.736;2023-07-24T00:03:21;98626.03;;;21.80;46.41
76586;BME280;65251;51.022;13.736;2023-07-24T00:03:52;98625.81;;;21.77;46.36
76586;BME280;65251;51.022;13.736;2023-07-24T00:04:25;98620.09;;;21.78;46.41
76586;BME280;65251;51.022;13.736;2023-07-24T00:04:56;98620.41;;;21.77;45.73
76586;BME280;65251;51.022;13.736;2023-07-24T00:05:27;98623.41;;;21.75;46.31
76586;BME280;65251;51.022;13.736;2023-07-24T00:05:59;98620.47;;;21.72;46.23
76586;BME280;65251;51.022;13.736;2023-07-24T00:06:31;98623.41;;;21.75;45.97
76586;BME280;65251;51.022;13.736;2023-07-24T00:07:02;98613.13;;;21.72;46.08
76586;BME280;65251;51.022;13.736;2023-07-24T00:07:32;98615.03;;;21.72;46.09
76586;BME280;65251;51.022;13.736;2023-07-24T00:08:04;98612.91;;;21.69;46.43
76586;BME280;65251;51.022;13.736;2023-07-24T00:08:37;98614.53;;;21.70;46.19
76586;BME280;65251;51.022;13.736;2023-07-24T00:09:08;98611.81;;;21.70;46.72
76586;BME280;65251;51.022;13.736;2023-07-24T00:09:39;98612.91;;;21.69;46.32
76586;BME280;65251;51.022;13.736;2023-07-24T00:10:09;98611.81;;;21.70;46.71
76586;BME280;65251;51.022;13.736;2023-07-24T00:10:41;98612.91;;;21.69;46.80
76586;BME280;65251;51.022;13.736;2023-07-24T00:11:12;98610.50;;;21.67;46.17
76586;BME280;65251;51.022;13.736;2023-07-24T00:11:42;98602.34;;;21.67;46.86
76586;BME280;65251;51.022;13.736;2023-07-24T00:12:13;98603.97;;;21.68;46.39
76586;BME280;65251;51.022;13.736;2023-07-24T00:12:45;98601.56;;;21.66;45.84
76586;BME280;65251;51.022;13.736;2023-07-24T00:13:16;98604.78;;;21.69;46.43
76586;BME280;65251;51.022;13.736;2023-07-24T00:13:46;98602.34;;;21.67;46.89
76586;BME280;65251;51.022;13.736;2023-07-24T00:14:18;98608.88;;;21.66;46.23
76586;BME280;65251;51.022;13.736;2023-07-24T00:14:49;98604.03;;;21.63;46.70
76586;BME280;65251;51.022;13.736;2023-07-24T00:15:20;98604.63;;;21.60;46.63
76586;BME280;65251;51.022;13.736;2023-07-24T00:15:51;98603.00;;;21.59;46.72
76586;BME280;65251;51.022;13.736;2023-07-24T00:16:22;98603.63;;;21.56;47.62
76586;BME280;65251;51.022;13.736;2023-07-24T00:16:53;98605.28;;;21.52;47.25
76586;BME280;65251;51.022;13.736;2023-07-24T00:17:24;98605.00;;;21.53;47.18
76586;BME280;65251;51.022;13.736;2023-07-24T00:17:55;98608.81;;;21.52;47.43
76586;BME280;65251;51.022;13.736;2023-07-24T00:18:26;98608.81;;;21.52;46.77
76586;BME280;65251;51.022;13.736;2023-07-24T00:18:57;98608.81;;;21.52;46.82
76586;BME280;65251;51.022;13.736;2023-07-24T00:19:28;98608.59;;;21.49;46.61
76586;BME280;65251;51.022;13.736;2023-07-24T00:20:00;98604.78;;;21.50;47.41
76586;BME280;65251;51.022;13.736;2023-07-24T00:20:30;98605.34;;;21.47;47.35
76586;BME280;65251;51.022;13.736;2023-07-24T00:21:02;98606.16;;;21.47;47.45
76586;BME280;65251;51.022;13.736;2023-07-24T00:21:33;98608.88;;;21.47;46.87
76586;BME280;65251;51.022;13.736;2023-07-24T00:22:05;98617.28;;;21.46;47.01
76586;BME280;65251;51.022;13.736;2023-07-24T00:22:36;98607.25;;;21.46;47.23
76586;BME280;65251;51.022;13.736;2023-07-24T00:23:07;98607.50;;;21.50;46.99
76586;BME280;65251;51.022;13.736;2023-07-24T00:23:38;98611.31;;;21.49;47.47
76586;BME280;65251;51.022;13.736;2023-07-24T00:24:09;98606.16;;;21.47;46.74
76586;BME280;65251;51.022;13.736;2023-07-24T00:24:40;98605.34;;;21.47;47.28
76586;BME280;65251;51.022;13.736;2023-07-24T00:25:12;98605.34;;;21.47;46.85
76586;BME280;65251;51.022;13.736;2023-07-24T00:25:43;98603.47;;;21.47;47.30
76586;BME280;65251;51.022;13.736;2023-07-24T00:26:14;98608.06;;;21.47;47.54
76586;BME280;65251;51.022;13.736;2023-07-24T00:26:45;98605.34;;;21.47;47.08
76586;BME280;65251;51.022;13.736;2023-07-24T00:27:16;98608.06;;;21.47;46.99
76586;BME280;65251;51.022;13.736;2023-07-24T00:27:47;98603.47;;;21.47;47.49
76586;BME280;65251;51.022;13.736;2023-07-24T00:28:17;98599.94;;;21.47;47.60
76586;BME280;65251;51.022;13.736;2023-07-24T00:28:49;98598.56;;;21.49;47.32
76586;BME280;65251;51.022;13.736;2023-07-24T00:29:23;98593.13;;;21.49;47.48
76586;BME280;65251;51.022;13.736;2023-07-24T00:29:54;98592.03;;;21.50;47.54
76586;BME280;65251;51.022;13.736;2023-07-24T00:30:24;98591.75;;;21.52;47.50
76586;BME280;65251;51.022;13.736;2023-07-24T00:30:56;98592.56;;;21.52;47.61
76586;BME280;65251;51.022;13.736;2023-07-24T00:31:27;98590.34;;;21.54;46.63
76586;BME280;65251;51.022;13.736;2023-07-24T00:31:58;98591.16;;;21.55;47.38
76586;BME280;65251;51.022;13.736;2023-07-24T00:32:29;98591.34;;;21.58;46.82
76586;BME280;65251;51.022;13.736;2023-07-24T00:32:59;98586.25;;;21.57;47.06
76586;BME280;65251;51.022;13.736;2023-07-24T00:33:31;98583.22;;;21.58;47.62
76586;BME280;65251;51.022;13.736;2023-07-24T00:34:02;98582.44;;;21.58;46.85
76586;BME280;65251;51.022;13.736;2023-07-24T00:34:32;98586.16;;;21.62;47.16
76586;BME280;65251;51.022;13.736;2023-07-24T00:35:04;98584.53;;;21.61;47.31
76586;BME280;65251;51.022;13.736;2023-07-24T00:35:35;98583.44;;;21.62;47.21
76586;BME280;65251;51.022;13.736;2023-07-24T00:36:08;98585.56;;;21.65;47.14
76586;BME280;65251;51.022;13.736;2023-07-24T00:36:39;98582.34;;;21.63;47.32
76586;BME280;65251;51.022;13.736;2023-07-24T00:37:09;98580.97;;;21.65;47.55
76586;BME280;65251;51.022;13.736;2023-07-24T00:37:40;98573.34;;;21.67;46.70
76586;BME280;65251;51.022;13.736;2023-07-24T00:38:12;98583.91;;;21.69;47.48
76586;BME280;65251;51.022;13.736;2023-07-24T00:38:43;98577.66;;;21.69;46.35
76586;BME280;65251;51.022;13.736;2023-07-24T00:39:14;98580.09;;;21.70;46.78
76586;BME280;65251;51.022;13.736;2023-07-24T00:39:45;98579.00;;;21.71;47.37
76586;BME280;65251;51.022;13.736;2023-07-24T00:40:17;98578.69;;;21.73;47.44
76586;BME280;65251;51.022;13.736;2023-07-24T00:40:48;98577.88;;;21.72;47.57
76586;BME280;65251;51.022;13.736;2023-07-24T00:41:18;98581.13;;;21.74;47.30
76586;BME280;65251;51.022;13.736;2023-07-24T00:41:49;98583.53;;;21.76;46.51
76586;BME280;65251;51.022;13.736;2023-07-24T00:42:21;98579.72;;;21.77;47.11
76586;BME280;65251;51.022;13.736;2023-07-24T00:42:52;98572.41;;;21.77;46.61
76586;BME280;65251;51.022;13.736;2023-07-24T00:43:23;98573.69;;;21.80;47.24
76586;BME280;65251;51.022;13.736;2023-07-24T00:43:54;98582.63;;;21.80;47.54
76586;BME280;65251;51.022;13.736;2023-07-24T00:44:25;98580.44;;;21.82;47.48
76586;BME280;65251;51.022;13.736;2023-07-24T00:44:56;98585.34;;;21.80;46.78
76586;BME280;65251;51.022;13.736;2023-07-24T00:45:27;98580.72;;;21.81;46.75
76586;BME280;65251;51.022;13.736;2023-07-24T00:45:58;98578.31;;;21.79;47.19
76586;BME280;65251;51.022;13.736;2023-07-24T00:46:30;98579.09;;;21.80;46.78
76586;BME280;65251;51.022;13.736;2023-07-24T00:47:03;98584.53;;;21.80;47.43
76586;BME280;65251;51.022;13.736;2023-07-24T00:47:34;98586.16;;;21.81;47.03
76586;BME280;65251;51.022;13.736;2023-07-24T00:48:05;98584.53;;;21.80;47.22
76586;BME280;65251;51.022;13.736;2023-07-24T00:48:37;98579.09;;;21.80;47.66
76586;BME280;65251;51.022;13.736;2023-07-24T00:49:09;98586.44;;;21.79;47.49
76586;BME280;65251;51.022;13.736;2023-07-24T00:49:40;98573.97;;;21.78;47.20
76586;BME280;65251;51.022;13.736;2023-07-24T00:50:12;98582.63;;;21.80;47.57
76586;BME280;65251;51.022;13.736;2023-07-24T00:50:45;98580.72;;;21.81;47.63
76586;BME280;65251;51.022;13.736;2023-07-24T00:51:17;98577.19;;;21.80;47.95
76586;BME280;65251;51.022;13.736;2023-07-24T00:51:49;98578.31;;;21.79;46.90
76586;BME280;65251;51.022;13.736;2023-07-24T00:52:20;98582.63;;;21.80;47.92
76586;BME280;65251;51.022;13.736;2023-07-24T00:52:54;98586.75;;;21.78;47.57
76586;BME280;65251;51.022;13.736;2023-07-24T00:53:25;98584.53;;;21.80;47.58
76586;BME280;65251;51.022;13.736;2023-07-24T00:53:56;98579.41;;;21.78;48.02
76586;BME280;65251;51.022;13.736;2023-07-24T00:54:30;98584.06;;;21.78;47.59
76586;BME280;65251;51.022;13.736;2023-07-24T00:55:05;98588.16;;;21.75;47.74
76586;BME280;65251;51.022;13.736;2023-07-24T00:55:37;98583.53;;;21.76;47.75
76586;BME280;65251;51.022;13.736;2023-07-24T00:56:10;98583.59;;;21.71;46.87
76586;BME280;65251;51.022;13.736;2023-07-24T00:56:43;98588.75;;;21.72;47.47
76586;BME280;65251;51.022;13.736;2023-07-24T00:57:15;98582.00;;;21.70;48.23
76586;BME280;65251;51.022;13.736;2023-07-24T00:57:46;98577.66;;;21.69;48.17
76586;BME280;65251;51.022;13.736;2023-07-24T00:58:19;98581.78;;;21.66;47.46
76586;BME280;65251;51.022;13.736;2023-07-24T00:58:51;98585.28;;;21.66;47.56
76586;BME280;65251;51.022;13.736;2023-07-24T00:59:22;98581.84;;;21.61;47.43
76586;BME280;65251;51.022;13.736;2023-07-24T00:59:54;98579.94;;;21.61;48.56
76586;BME280;65251;51.022;13.736;2023-07-24T01:00:26;98581.94;;;21.56;48.59
76586;BME280;65251;51.022;13.736;2023-07-24T01:00:57;98579.50;;;21.54;48.82
76586;BME280;65251;51.022;13.736;2023-07-24T01:01:29;98569.75;;;21.53;48.62
76586;BME280;65251;51.022;13.736;2023-07-24T01:02:00;98580.59;;;21.53;48.17
76586;BME280;65251;51.022;13.736;2023-07-24T01:02:32;98575.19;;;21.53;48.02
76586;BME280;65251;51.022;13.736;2023-07-24T01:03:03;98574.09;;;21.54;48.95
76586;BME280;65251;51.022;13.736;2023-07-24T01:03:35;98573.56;;;21.52;48.19
76586;BME280;65251;51.022;13.736;2023-07-24T01:04:07;98574.16;;;21.49;48.63
76586;BME280;65251;51.022;13.736;2023-07-24T01:04:39;98573.34;;;21.49;49.01
76586;BME280;65251;51.022;13.736;2023-07-24T01:05:13;98571.22;;;21.46;48.23
76586;BME280;65251;51.022;13.736;2023-07-24T01:05:44;98574.22;;;21.44;48.72
76586;BME280;65251;51.022;13.736;2023-07-24T01:06:15;98575.03;;;21.45;49.16
76586;BME280;65251;51.022;13.736;2023-07-24T01:06:47;98573.94;;;21.46;48.71
76586;BME280;65251;51.022;13.736;2023-07-24T01:07:20;98569.59;;;21.45;49.01
76586;BME280;65251;51.022;13.736;2023-07-24T01:07:51;98571.50;;;21.44;48.58
76586;BME280;65251;51.022;13.736;2023-07-24T01:08:22;98567.19;;;21.43;48.48
76586;BME280;65251;51.022;13.736;2023-07-24T01:08:53;98562.84;;;21.42;48.98
76586;BME280;65251;51.022;13.736;2023-07-24T01:09:25;98576.63;;;21.46;48.64
76586;BME280;65251;51.022;13.736;2023-07-24T01:09:56;98569.59;;;21.45;48.42
76586;BME280;65251;51.022;13.736;2023-07-24T01:10:27;98566.09;;;21.44;48.51
76586;BME280;65251;51.022;13.736;2023-07-24T01:11:03;98570.41;;;21.45;48.63
76586;BME280;65251;51.022;13.736;2023-07-24T01:11:43;98564.69;;;21.47;49.36
76586;BME280;65251;51.022;13.736;2023-07-24T01:12:22;98573.13;;;21.45;48.20
76586;BME280;65251;51.022;13.736;2023-07-24T01:12:59;98568.28;;;21.42;48.54
76586;BME280;65251;51.022;13.736;2023-07-24T01:13:36;98566.97;;;21.40;49.45
76586;BME280;65251;51.022;13.736;2023-07-24T01:14:17;98562.97;;;21.37;49.19
76586;BME280;65251;51.022;13.736;2023-07-24T01:14:55;98569.47;;;21.36;48.68
76586;BME280;65251;51.022;13.736;2023-07-24T01:15:32;98567.56;;;21.37;48.98
76586;BME280;65251;51.022;13.736;2023-07-24T01:16:09;98567.84;;;21.35;48.60
76586;BME280;65251;51.022;13.736;2023-07-24T01:16:44;98576.00;;;21.35;48.91
76586;BME280;65251;51.022;13.736;2023-07-24T01:17:24;98568.38;;;21.37;47.97
76586;BME280;65251;51.022;13.736;2023-07-24T01:17:58;98569.75;;;21.35;48.50
76586;BME280;65251;51.022;13.736;2023-07-24T01:18:31;98568.97;;;21.34;49.02
76586;BME280;65251;51.022;13.736;2023-07-24T01:19:09;98572.75;;;21.33;49.10
76586;BME280;65251;51.022;13.736;2023-07-24T01:19:46;98580.09;;;21.33;48.99
76586;BME280;65251;51.022;13.736;2023-07-24T01:20:19;98575.75;;;21.31;48.02
76586;BME280;65251;51.022;13.736;2023-07-24T01:20:55;98571.94;;;21.33;48.84
76586;BME280;65251;51.022;13.736;2023-07-24T01:21:45;98571.66;;;21.34;48.87
76586;BME280;65251;51.022;13.736;2023-07-24T01:22:38;98570.06;;;21.33;48.41
76586;BME280;65251;51.022;13.736;2023-07-24T01:23:22;98564.34;;;21.35;49.33
76586;BME280;65251;51.022;13.736;2023-07-24T01:23:59;98575.47;;;21.33;47.94
76586;BME280;65251;51.022;13.736;2023-07-24T01:24:39;98565.44;;;21.34;48.03
76586;BME280;65251;51.022;13.736;2023-07-24T01:25:23;98571.38;;;21.36;48.20
76586;BME280;65251;51.022;13.736;2023-07-24T01:26:00;98572.19;;;21.36;48.73
76586;BME280;65251;51.022;13.736;2023-07-24T01:26:33;98570.00;;;21.38;48.66
76586;BME280;65251;51.022;13.736;2023-07-24T01:27:07;98567.28;;;21.38;47.69
76586;BME280;65251;51.022;13.736;2023-07-24T01:27:41;98572.91;;;21.42;47.86
76586;BME280;65251;51.022;13.736;2023-07-24T01:28:12;98566.97;;;21.40;48.79
76586;BME280;65251;51.022;13.736;2023-07-24T01:28:42;98575.09;;;21.40;48.31
76586;BME280;65251;51.022;13.736;2023-07-24T01:29:14;98567.75;;;21.40;47.96
76586;BME280;65251;51.022;13.736;2023-07-24T01:29:45;98571.00;;;21.42;48.87
76586;BME280;65251;51.022;13.736;2023-07-24T01:30:18;98568.56;;;21.41;49.00
76586;BME280;65251;51.022;13.736;2023-07-24T01:30:49;98559.16;;;21.38;47.93
76586;BME280;65251;51.022;13.736;2023-07-24T01:31:21;98561.06;;;21.38;47.79
76586;BME280;65251;51.022;13.736;2023-07-24T01:31:52;98562.63;;;21.39;49.20
76586;BME280;65251;51.022;13.736;2023-07-24T01:32:23;98558.34;;;21.38;48.37
76586;BME280;65251;51.022;13.736;2023-07-24T01:32:54;98562.63;;;21.39;48.99
76586;BME280;65251;51.022;13.736;2023-07-24T01:33:26;98563.44;;;21.39;48.29
76586;BME280;65251;51.022;13.736;2023-07-24T01:33:57;98556.91;;;21.40;48.03
76586;BME280;65251;51.022;13.736;2023-07-24T01:34:28;98558.53;;;21.41;48.15
76586;BME280;65251;51.022;13.736;2023-07-24T01:34:59;98553.13;;;21.41;48.18
76586;BME280;65251;51.022;13.736;2023-07-24T01:35:32;98559.94;;;21.39;48.27
76586;BME280;65251;51.022;13.736;2023-07-24T01:36:04;98561.25;;;21.41;48.67
76586;BME280;65251;51.022;13.736;2023-07-24T01:36:36;98553.91;;;21.42;47.85
76586;BME280;65251;51.022;13.736;2023-07-24T01:37:07;98556.63;;;21.42;48.33
76586;BME280;65251;51.022;13.736;2023-07-24T01:37:40;98558.25;;;21.43;48.56
76586;BME280;65251;51.022;13.736;2023-07-24T01:38:13;98556.84;;;21.45;48.25
76586;BME280;65251;51.022;13.736;2023-07-24T01:38:46;98556.06;;;21.45;47.81
76586;BME280;65251;51.022;13.736;2023-07-24T01:39:20;98559.84;;;21.44;48.18
76586;BME280;65251;51.022;13.736;2023-07-24T01:39:53;98558.75;;;21.45;48.65
76586;BME280;65251;51.022;13.736;2023-07-24T01:40:26;98559.28;;;21.47;48.87
76586;BME280;65251;51.022;13.736;2023-07-24T01:40:57;98563.09;;;21.46;48.15
76586;BME280;65251;51.022;13.736;2023-07-24T01:41:30;98554.94;;;21.46;47.61
76586;BME280;65251;51.022;13.736;2023-07-24T01:42:02;98565.00;;;21.45;48.59
76586;BME280;65251;51.022;13.736;2023-07-24T01:42:34;98566.59;;;21.46;48.92
76586;BME280;65251;51.022;13.736;2023-07-24T01:43:04;98561.19;;;21.46;48.82
76586;BME280;65251;51.022;13.736;2023-07-24T01:43:36;98564.19;;;21.45;48.19
76586;BME280;65251;51.022;13.736;2023-07-24T01:44:07;98558.75;;;21.45;48.46
76586;BME280;65251;51.022;13.736;2023-07-24T01:44:38;98566.31;;;21.48;47.92
76586;BME280;65251;51.022;13.736;2023-07-24T01:45:10;98560.59;;;21.49;48.35
76586;BME280;65251;51.022;13.736;2023-07-24T01:45:41;98559.50;;;21.50;48.42
76586;BME280;65251;51.022;13.736;2023-07-24T01:46:12;98555.19;;;21.49;47.85
76586;BME280;65251;51.022;13.736;2023-07-24T01:46:43;98555.19;;;21.49;48.35
76586;BME280;65251;51.022;13.736;2023-07-24T01:47:15;98554.38;;;21.49;48.26
76586;BME280;65251;51.022;13.736;2023-07-24T01:47:46;98557.88;;;21.49;48.21
76586;BME280;65251;51.022;13.736;2023-07-24T01:48:16;98556.78;;;21.50;47.70
76586;BME280;65251;51.022;13.736;2023-07-24T01:48:47;98556.78;;;21.50;47.67
76586;BME280;65251;51.022;13.736;2023-07-24T01:49:19;98550.84;;;21.48;48.15
76586;BME280;65251;51.022;13.736;2023-07-24T01:49:50;98549.75;;;21.49;48.76
76586;BME280;65251;51.022;13.736;2023-07-24T01:50:20;98548.66;;;21.50;47.89
76586;BME280;65251;51.022;13.736;2023-07-24T01:50:51;98545.13;;;21.50;48.58
76586;BME280;65251;51.022;13.736;2023-07-24T01:51:23;98546.53;;;21.47;48.15
76586;BME280;65251;51.022;13.736;2023-07-24T01:51:53;98547.63;;;21.46;48.67
76586;BME280;65251;51.022;13.736;2023-07-24T01:52:24;98544.91;;;21.46;48.10
76586;BME280;65251;51.022;13.736;2023-07-24T01:52:55;98544.91;;;21.46;48.86
76586;BME280;65251;51.022;13.736;2023-07-24T01:53:26;98542.22;;;21.46;48.27
76586;BME280;65251;51.022;13.736;2023-07-24T01:53:57;98543.81;;;21.47;48.35
76586;BME280;65251;51.022;13.736;2023-07-24T01:54:28;98548.94;;;21.49;48.18
76586;BME280;65251;51.022;13.736;2023-07-24T01:54:59;98541.09;;;21.47;48.57
76586;BME280;65251;51.022;13.736;2023-07-24T01:55:30;98546.53;;;21.47;48.67
76586;BME280;65251;51.022;13.736;2023-07-24T01:56:01;98539.78;;;21.45;49.01
76586;BME280;65251;51.022;13.736;2023-07-24T01:56:36;98543.31;;;21.45;48.00
76586;BME280;65251;51.022;13.736;2023-07-24T01:57:07;98547.41;;;21.43;48.20
76586;BME280;65251;51.022;13.736;2023-07-24T01:57:38;98542.28;;;21.41;49.32
76586;BME280;65251;51.022;13.736;2023-07-24T01:58:09;98537.66;;;21.42;48.27
76586;BME280;65251;51.022;13.736;2023-07-24T01:58:40;98541.19;;;21.42;48.83
76586;BME280;65251;51.022;13.736;2023-07-24T01:59:11;98542.56;;;21.40;48.39
76586;BME280;65251;51.022;13.736;2023-07-24T01:59:42;98542.56;;;21.40;48.65
76586;BME280;65251;51.022;13.736;2023-07-24T02:00:14;98535.03;;;21.37;48.43
76586;BME280;65251;51.022;13.736;2023-07-24T02:00:46;98539.38;;;21.38;48.58
76586;BME280;65251;51.022;13.736;2023-07-24T02:01:16;98537.47;;;21.38;48.83
76586;BME280;65251;51.022;13.736;2023-07-24T02:01:47;98533.94;;;21.38;48.29
76586;BME280;65251;51.022;13.736;2023-07-24T02:02:18;98532.03;;;21.38;49.07
76586;BME280;65251;51.022;13.736;2023-07-24T02:02:50;98533.63;;;21.39;48.25
76586;BME280;65251;51.022;13.736;2023-07-24T02:03:20;98536.84;;;21.41;48.08
76586;BME280;65251;51.022;13.736;2023-07-24T02:03:51;98542.56;;;21.40;48.54
76586;BME280;65251;51.022;13.736;2023-07-24T02:04:22;98537.13;;;21.40;48.19
76586;BME280;65251;51.022;13.736;2023-07-24T02:04:53;98535.53;;;21.39;49.38
76586;BME280;65251;51.022;13.736;2023-07-24T02:05:25;98540.94;;;21.39;48.88
76586;BME280;65251;51.022;13.736;2023-07-24T02:05:56;98540.16;;;21.38;48.37
76586;BME280;65251;51.022;13.736;2023-07-24T02:06:26;98536.66;;;21.38;48.38
76586;BME280;65251;51.022;13.736;2023-07-24T02:06:58;98531.00;;;21.34;47.98
76586;BME280;65251;51.022;13.736;2023-07-24T02:07:29;98535.84;;;21.37;48.89
76586;BME280;65251;51.022;13.736;2023-07-24T02:07:59;98529.91;;;21.35;49.30
76586;BME280;65251;51.022;13.736;2023-07-24T02:08:30;98535.09;;;21.31;48.41
76586;BME280;65251;51.022;13.736;2023-07-24T02:09:02;98535.91;;;21.32;48.16
76586;BME280;65251;51.022;13.736;2023-07-24T02:09:32;98530.50;;;21.32;48.74
76586;BME280;65251;51.022;13.736;2023-07-24T02:10:04;98530.78;;;21.30;49.15
76586;BME280;65251;51.022;13.736;2023-07-24T02:10:37;98532.97;;;21.28;48.14
76586;BME280;65251;51.022;13.736;2023-07-24T02:11:09;98531.06;;;21.29;48.66
76586;BME280;65251;51.022;13.736;2023-07-24T02:11:41;98529.47;;;21.28;48.33
76586;BME280;65251;51.022;13.736;2023-07-24T02:12:12;98528.94;;;21.26;49.31
76586;BME280;65251;51.022;13.736;2023-07-24T02:12:42;98532.97;;;21.28;48.91
76586;BME280;65251;51.022;13.736;2023-07-24T02:13:14;98538.09;;;21.30;49.45
76586;BME280;65251;51.022;13.736;2023-07-24T02:13:45;98534.59;;;21.29;48.79
76586;BME280;65251;51.022;13.736;2023-07-24T02:14:17;98535.09;;;21.31;48.54
76586;BME280;65251;51.022;13.736;2023-07-24T02:14:51;98539.22;;;21.29;48.73
76586;BME280;65251;51.022;13.736;2023-07-24T02:15:22;98534.38;;;21.26;49.36
76586;BME280;65251;51.022;13.736;2023-07-24T02:15:52;98540.59;;;21.26;48.93
76586;BME280;65251;51.022;13.736;2023-07-24T02:16:24;98537.38;;;21.24;49.11
76586;BME280;65251;51.022;13.736;2023-07-24T02:16:55;98535.47;;;21.25;48.91
76586;BME280;65251;51.022;13.736;2023-07-24T02:17:26;98531.94;;;21.24;48.50
76586;BME280;65251;51.022;13.736;2023-07-24T02:17:57;98530.63;;;21.22;49.91
76586;BME280;65251;51.022;13.736;2023-07-24T02:18:27;98529.28;;;21.19;49.00
76586;BME280;65251;51.022;13.736;2023-07-24T02:19:02;98528.19;;;21.20;48.92
76586;BME280;65251;51.022;13.736;2023-07-24T02:19:33;98529.28;;;21.19;49.44
76586;BME280;65251;51.022;13.736;2023-07-24T02:20:05;98527.41;;;21.20;48.79
76586;BME280;65251;51.022;13.736;2023-07-24T02:20:35;98530.38;;;21.18;49.97
76586;BME280;65251;51.022;13.736;2023-07-24T02:21:07;98534.19;;;21.17;48.86
76586;BME280;65251;51.022;13.736;2023-07-24T02:21:38;98529.28;;;21.19;50.21
76586;BME280;65251;51.022;13.736;2023-07-24T02:22:11;98529.06;;;21.16;49.35
76586;BME280;65251;51.022;13.736;2023-07-24T02:22:43;98526.66;;;21.14;49.70
76586;BME280;65251;51.022;13.736;2023-07-24T02:23:13;98532.88;;;21.15;49.50
76586;BME280;65251;51.022;13.736;2023-07-24T02:23:44;98529.34;;;21.14;50.22
76586;BME280;65251;51.022;13.736;2023-07-24T02:24:15;98537.50;;;21.14;50.07
76586;BME280;65251;51.022;13.736;2023-07-24T02:24:47;98529.13;;;21.11;49.46
76586;BME280;65251;51.022;13.736;2023-07-24T02:25:17;98534.78;;;21.14;49.87
76586;BME280;65251;51.022;13.736;2023-07-24T02:25:51;98533.69;;;21.15;49.65
76586;BME280;65251;51.022;13.736;2023-07-24T02:26:22;98528.25;;;21.15;49.01
76586;BME280;65251;51.022;13.736;2023-07-24T02:26:55;98536.09;;;21.17;49.82
76586;BME280;65251;51.022;13.736;2023-07-24T02:27:27;98527.75;;;21.13;49.31
76586;BME280;65251;51.022;13.736;2023-07-24T02:27:58;98537.19;;;21.16;49.34
76586;BME280;65251;51.022;13.736;2023-07-24T02:28:29;98535.59;;;21.15;49.90
76586;BME280;65251;51.022;13.736;2023-07-24T02:28:59;98534.19;;;21.17;48.60
76586;BME280;65251;51.022;13.736;2023-07-24T02:29:31;98533.97;;;21.14;49.15
76586;BME280;65251;51.022;13.736;2023-07-24T02:30:02;98536.44;;;21.10;49.84
76586;BME280;65251;51.022;13.736;2023-07-24T02:30:37;98536.97;;;21.12;49.82
76586;BME280;65251;51.022;13.736;2023-07-24T02:31:08;98521.53;;;21.13;49.30
76586;BME280;65251;51.022;13.736;2023-07-24T02:31:40;98533.16;;;21.13;49.00
76586;BME280;65251;51.022;13.736;2023-07-24T02:32:11;98531.25;;;21.14;49.64
76586;BME280;65251;51.022;13.736;2023-07-24T02:32:41;98532.66;;;21.11;49.94
76586;BME280;65251;51.022;13.736;2023-07-24T02:33:12;98529.13;;;21.11;50.17
76586;BME280;65251;51.022;13.736;2023-07-24T02:33:44;98523.94;;;21.14;49.08
76586;BME280;65251;51.022;13.736;2023-07-24T02:34:16;98531.78;;;21.16;49.96
76586;BME280;65251;51.022;13.736;2023-07-24T02:34:48;98529.34;;;21.14;49.54
76586;BME280;65251;51.022;13.736;2023-07-24T02:35:19;98531.78;;;21.16;48.72
76586;BME280;65251;51.022;13.736;2023-07-24T02:35:53;98535.00;;;21.18;49.72
76586;BME280;65251;51.022;13.736;2023-07-24T02:36:23;98534.78;;;21.14;49.16
76586;BME280;65251;51.022;13.736;2023-07-24T02:36:54;98531.78;;;21.16;50.21
76586;BME280;65251;51.022;13.736;2023-07-24T02:37:25;98527.16;;;21.16;48.91
76586;BME280;65251;51.022;13.736;2023-07-24T02:37:57;98531.78;;;21.16;50.06
76586;BME280;65251;51.022;13.736;2023-07-24T02:38:28;98535.00;;;21.18;49.56
76586;BME280;65251;51.022;13.736;2023-07-24T02:38:58;98544.22;;;21.17;49.47
76586;BME280;65251;51.022;13.736;2023-07-24T02:39:29;98533.88;;;21.19;49.11
76586;BME280;65251;51.022;13.736;2023-07-24T02:40:01;98535.00;;;21.18;49.86
76586;BME280;65251;51.022;13.736;2023-07-24T02:40:32;98523.59;;;21.21;49.46
76586;BME280;65251;51.022;13.736;2023-07-24T02:41:02;98532.53;;;21.21;48.85
76586;BME280;65251;51.022;13.736;2023-07-24T02:41:35;98530.34;;;21.23;49.37
76586;BME280;65251;51.022;13.736;2023-07-24T02:42:08;98526.00;;;21.22;49.93
76586;BME280;65251;51.022;13.736;2023-07-24T02:42:38;98526.00;;;21.22;50.10
76586;BME280;65251;51.022;13.736;2023-07-24T02:43:09;98527.09;;;21.21;49.92
76586;BME280;65251;51.022;13.736;2023-07-24T02:43:40;98526.81;;;21.23;49.04
76586;BME280;65251;51.022;13.736;2023-07-24T02:44:12;98517.94;;;21.17;49.82
76586;BME280;65251;51.022;13.736;2023-07-24T02:44:43;98525.72;;;21.24;49.33
76586;BME280;65251;51.022;13.736;2023-07-24T02:45:13;98526.53;;;21.24;48.66
76586;BME280;65251;51.022;13.736;2023-07-24T02:45:44;98528.66;;;21.27;48.69
76586;BME280;65251;51.022;13.736;2023-07-24T02:46:16;98523.25;;;21.27;49.05
76586;BME280;65251;51.022;13.736;2023-07-24T02:46:46;98520.75;;;21.31;48.58
76586;BME280;65251;51.022;13.736;2023-07-24T02:47:17;98527.50;;;21.34;48.37